Portada
METAR-TAF:

METAR-TAF

Aeroports :

Lake City, Florida, Estats Units d'Amèrica

latitud: 30-10-55N, longitud: 082-34-37W, altitud: 61 m

Observació

L'informe es va fer fa 25 minuts, a les 06:35 UTC
Vent 5 kt del Nord/Nord-Est
Temperatura 22°C
Humitat 100%
Pressió 1015 hPa
Visibilitat: 16.1 km
Cel clar

METAR: KLCQ 160635Z AUTO 02005KT 10SM CLR 22/22 A2998 RMK AO2

Hora: 03:00 (07:00 UTC)


TAF: manca

Observacions i pronòstics meteorològics de més de 4000 aeroports (METAR i TAF).

Les estacions disponibles són els punts grocs i vermells al mapa.

Posi el ratolí al punt desitjat per veure el nom de l'estació.

Feu clic per veure les observacions i els pronòstics meteorològics.

Per canviar el mapa: feu clic els botons verds amb una creu de color negre per apropar; al botó verd amb un guió per allunyar la imatge; o en les fletxes verdes per a mapes adjacents.


METAR-TAF: